Terminal Aerodrome Forecast
Issued by NWS

Home | Current Version | Previous Version | Text Only | Print | Product List | Glossary On
Versions: 1 2 3 4 5 6 7 8 9 10 11 12
120
FTUS44 KSJT 081733
TAFSOA
TAF
KSOA 081733Z 0818/0918 36013G20KT P6SM BKN250
     FM082300 35005KT P6SM BKN250
     FM090300 VRB03KT P6SM SCT250=

USA.gov is the U.S. government's official web portal to all federal, state and local government web resources and services.